createdAt,value
2023-01-17T00:09:20.313Z,43.13
2023-01-17T00:19:39.972Z,43.21
2023-01-17T00:29:41.314Z,43.42
2023-01-17T00:39:42.754Z,43.51
2023-01-17T00:50:02.890Z,43.45
2023-01-17T01:00:23.272Z,43.61
2023-01-17T01:10:43.047Z,43.64
2023-01-17T01:21:03.156Z,43.94
2023-01-17T01:31:23.460Z,43.96
2023-01-17T01:41:24.850Z,43.79
2023-01-17T01:51:29.532Z,43.53
2023-01-17T02:01:30.984Z,43.27
2023-01-17T02:11:32.618Z,42.91
2023-01-17T02:21:40.800Z,42.64
2023-01-17T02:31:45.327Z,42.30
2023-01-17T02:41:49.401Z,42.41
2023-01-17T02:52:15.624Z,42.31
2023-01-17T03:02:40.165Z,42.19
2023-01-17T03:12:41.568Z,42.21
2023-01-17T03:22:43.093Z,42.41
2023-01-17T03:32:44.464Z,42.40
2023-01-17T03:42:45.896Z,42.71
2023-01-17T03:52:47.299Z,43.06
2023-01-17T04:02:48.812Z,42.91
2023-01-17T04:12:50.284Z,43.03
2023-01-17T04:22:51.665Z,43.10
2023-01-17T04:32:53.117Z,43.33
2023-01-17T04:42:54.515Z,43.29
2023-01-17T04:52:55.882Z,43.39
2023-01-17T05:02:57.321Z,43.51
2023-01-17T05:12:59.097Z,43.39
2023-01-17T05:23:00.539Z,43.27
2023-01-17T05:33:01.916Z,42.79
2023-01-17T05:43:03.760Z,42.54
2023-01-17T05:53:08.026Z,42.50
2023-01-17T06:03:09.423Z,42.31
2023-01-17T06:13:12.413Z,42.15
2023-01-17T06:23:14.220Z,42.18
2023-01-17T06:33:15.641Z,42.29
2023-01-17T06:43:17.056Z,42.37
2023-01-17T06:53:18.460Z,42.49
2023-01-17T07:03:21.554Z,42.46
2023-01-17T07:13:22.940Z,42.44
2023-01-17T07:23:24.421Z,42.27
2023-01-17T07:33:25.855Z,42.35
2023-01-17T07:43:27.236Z,42.22
2023-01-17T07:53:29.756Z,42.36
2023-01-17T08:03:32.389Z,42.41
2023-01-17T08:13:33.820Z,42.09
2023-01-17T08:23:35.232Z,42.10
2023-01-17T08:33:36.638Z,41.72
2023-01-17T08:43:38.006Z,41.78
2023-01-17T08:53:40.485Z,41.83
2023-01-17T09:03:41.960Z,42.08
2023-01-17T09:13:43.350Z,41.98
2023-01-17T09:23:44.767Z,42.11
2023-01-17T09:33:46.901Z,42.18
2023-01-17T09:43:55.777Z,42.02
2023-01-17T09:53:57.029Z,41.62
2023-01-17T10:04:10.573Z,41.58
2023-01-17T10:14:22.108Z,41.46
2023-01-17T10:24:54.108Z,41.41
2023-01-17T10:34:55.654Z,41.35
2023-01-17T10:45:21.485Z,41.31
2023-01-17T10:55:36.620Z,41.39
2023-01-17T11:05:38.015Z,41.10
2023-01-17T11:15:39.647Z,41.26
2023-01-17T11:25:41.549Z,41.32
2023-01-17T11:35:46.088Z,41.27
2023-01-17T11:46:03.928Z,41.11
2023-01-17T11:56:06.069Z,41.16
2023-01-17T12:06:25.041Z,41.15
2023-01-17T12:16:55.735Z,41.13
2023-01-17T12:27:19.292Z,41.22
2023-01-17T12:37:31.641Z,41.42
2023-01-17T12:47:36.127Z,41.44
2023-01-17T12:57:43.044Z,41.25
2023-01-17T13:08:05.167Z,41.33
2023-01-17T13:18:14.188Z,41.57
2023-01-17T13:28:36.264Z,41.68
2023-01-17T13:38:43.736Z,41.70
2023-01-17T13:48:45.126Z,41.77
2023-01-17T13:58:54.822Z,42.01
2023-01-17T14:09:15.226Z,42.03
2023-01-17T14:19:25.176Z,42.41
2023-01-17T14:29:46.327Z,42.49
2023-01-17T14:39:49.022Z,42.62
2023-01-17T14:49:50.997Z,42.71
2023-01-17T14:59:52.382Z,42.79
2023-01-17T15:09:53.786Z,42.85
2023-01-17T15:20:01.333Z,42.98
2023-01-17T15:30:04.148Z,43.11
2023-01-17T15:40:18.521Z,43.30
2023-01-17T15:50:20.024Z,43.33
2023-01-17T16:00:24.174Z,43.44
2023-01-17T16:10:31.626Z,43.45
2023-01-17T16:20:35.143Z,43.66
2023-01-17T16:30:36.570Z,43.66
2023-01-17T16:40:44.690Z,43.86
2023-01-17T16:50:50.201Z,43.91
2023-01-17T17:00:51.714Z,43.96
2023-01-17T17:10:53.175Z,44.07
2023-01-17T17:20:54.720Z,44.09
2023-01-17T17:31:03.751Z,44.03
2023-01-17T17:41:06.650Z,44.30
2023-01-17T17:51:19.000Z,44.36
2023-01-17T18:01:24.287Z,44.41
2023-01-17T18:11:26.524Z,44.48
2023-01-17T18:21:31.045Z,44.69
2023-01-17T18:31:32.633Z,44.66
2023-01-17T18:41:34.493Z,44.56
2023-01-17T18:51:35.890Z,44.49
2023-01-17T19:01:37.550Z,44.57
2023-01-17T19:11:39.007Z,44.58
2023-01-17T19:21:40.418Z,44.71
2023-01-17T19:31:43.321Z,44.75
2023-01-17T19:41:45.191Z,44.64
2023-01-17T19:51:46.853Z,44.73
2023-01-17T20:01:49.100Z,44.84
2023-01-17T20:11:51.087Z,44.84
2023-01-17T20:21:53.137Z,44.81
2023-01-17T20:31:54.718Z,44.75
2023-01-17T20:41:56.183Z,44.84
2023-01-17T20:51:59.819Z,44.96
2023-01-17T21:02:01.481Z,44.93
2023-01-17T21:12:03.002Z,45.02
2023-01-17T21:22:05.432Z,44.68
2023-01-17T21:32:08.545Z,44.30
2023-01-17T21:42:09.930Z,43.94
2023-01-17T21:52:11.427Z,43.66
2023-01-17T22:02:12.866Z,43.36
2023-01-17T22:12:14.310Z,43.36
2023-01-17T22:22:15.706Z,43.33
2023-01-17T22:32:17.117Z,43.24
2023-01-17T22:42:18.526Z,43.15
2023-01-17T22:52:20.043Z,43.29
2023-01-17T23:02:21.480Z,43.40
2023-01-17T23:12:22.901Z,43.55
2023-01-17T23:22:26.882Z,43.74
2023-01-17T23:32:28.575Z,44.04
2023-01-17T23:42:48.285Z,43.94
2023-01-17T23:52:49.692Z,44.53
